sim
Sign-in with your pilot id or email,
or register
Callsign
Passwort

Schedule Details

Flight Number: OEO4759
Departure: Oulu Airport (EFOU) at 10:05
Arrival: Munich Airport (EDDM) at 13:20

Weather Information
Getting current METAR information for EFOU 271020Z AUTO 07007KT 9000 OVC002 12/11 Q1022
Getting current METAR information for EDDM 271020Z 22007KT 190V260 9999 FEW040 13/03 Q1006 NOSIG

Schedule Frequency

Route Map